sensor_id;sensor_type;location;lat;lon;timestamp;pressure;altitude;pressure_sealevel;temperature;humidity
48364;BME280;34170;54.364;18.582;2023-07-29T00:02:03;99465.94;;;14.74;100.00
48364;BME280;34170;54.364;18.582;2023-07-29T00:04:31;99478.44;;;14.75;100.00
48364;BME280;34170;54.364;18.582;2023-07-29T00:06:59;99482.03;;;14.82;100.00
48364;BME280;34170;54.364;18.582;2023-07-29T00:09:26;99478.81;;;14.72;100.00
48364;BME280;34170;54.364;18.582;2023-07-29T00:11:54;99477.00;;;14.79;100.00
48364;BME280;34170;54.364;18.582;2023-07-29T00:14:21;99477.84;;;14.79;100.00
48364;BME280;34170;54.364;18.582;2023-07-29T00:16:49;99483.09;;;14.81;100.00
48364;BME280;34170;54.364;18.582;2023-07-29T00:19:16;99482.19;;;14.74;100.00
48364;BME280;34170;54.364;18.582;2023-07-29T00:21:44;99481.91;;;14.68;100.00
48364;BME280;34170;54.364;18.582;2023-07-29T00:24:11;99474.72;;;14.61;100.00
48364;BME280;34170;54.364;18.582;2023-07-29T00:26:39;99471.41;;;14.80;100.00
48364;BME280;34170;54.364;18.582;2023-07-29T00:29:06;99482.94;;;14.67;100.00
48364;BME280;34170;54.364;18.582;2023-07-29T00:31:34;99477.91;;;14.86;100.00
48364;BME280;34170;54.364;18.582;2023-07-29T00:34:01;99484.03;;;14.95;100.00
48364;BME280;34170;54.364;18.582;2023-07-29T00:36:29;99481.91;;;14.90;100.00
48364;BME280;34170;54.364;18.582;2023-07-29T00:38:56;99482.19;;;14.74;100.00
48364;BME280;34170;54.364;18.582;2023-07-29T00:41:24;99474.19;;;14.87;100.00
48364;BME280;34170;54.364;18.582;2023-07-29T00:43:52;99474.97;;;14.81;100.00
48364;BME280;34170;54.364;18.582;2023-07-29T00:46:21;99483.38;;;14.71;100.00
48364;BME280;34170;54.364;18.582;2023-07-29T00:48:49;99472.38;;;14.73;100.00
48364;BME280;34170;54.364;18.582;2023-07-29T00:51:17;99477.25;;;14.84;100.00
48364;BME280;34170;54.364;18.582;2023-07-29T00:53:44;99476.25;;;14.85;100.00
48364;BME280;34170;54.364;18.582;2023-07-29T00:56:12;99480.13;;;14.76;100.00
48364;BME280;34170;54.364;18.582;2023-07-29T00:58:40;99477.16;;;14.92;100.00
48364;BME280;34170;54.364;18.582;2023-07-29T01:01:08;99479.03;;;14.92;100.00
48364;BME280;34170;54.364;18.582;2023-07-29T01:03:35;99479.84;;;14.92;100.00
48364;BME280;34170;54.364;18.582;2023-07-29T01:06:29;99480.88;;;14.91;100.00
48364;BME280;34170;54.364;18.582;2023-07-29T01:09:09;99478.13;;;14.84;100.00
48364;BME280;34170;54.364;18.582;2023-07-29T01:12:12;99482.19;;;14.74;100.00
48364;BME280;34170;54.364;18.582;2023-07-29T01:17:42;99475.97;;;14.80;100.00
48364;BME280;34170;54.364;18.582;2023-07-29T01:20:17;99477.91;;;14.86;100.00
48364;BME280;34170;54.364;18.582;2023-07-29T01:22:48;99485.72;;;14.96;100.00
48364;BME280;34170;54.364;18.582;2023-07-29T01:25:16;99480.88;;;14.70;100.00
48364;BME280;34170;54.364;18.582;2023-07-29T01:27:45;99486.09;;;14.93;100.00
48364;BME280;34170;54.364;18.582;2023-07-29T01:30:13;99484.94;;;14.80;100.00
48364;BME280;34170;54.364;18.582;2023-07-29T01:32:59;99493.13;;;14.87;100.00
48364;BME280;34170;54.364;18.582;2023-07-29T01:35:50;99494.41;;;14.91;100.00
48364;BME280;34170;54.364;18.582;2023-07-29T01:38:29;99481.59;;;15.00;100.00
48364;BME280;34170;54.364;18.582;2023-07-29T01:41:02;99475.09;;;14.94;100.00
48364;BME280;34170;54.364;18.582;2023-07-29T01:43:32;99489.84;;;14.92;100.00
48364;BME280;34170;54.364;18.582;2023-07-29T01:46:00;99482.56;;;14.71;100.00
48364;BME280;34170;54.364;18.582;2023-07-29T01:48:28;99490.16;;;14.82;100.00
48364;BME280;34170;54.364;18.582;2023-07-29T01:50:57;99475.06;;;14.73;100.00
48364;BME280;34170;54.364;18.582;2023-07-29T01:53:25;99474.44;;;14.71;100.00
48364;BME280;34170;54.364;18.582;2023-07-29T01:55:52;99486.72;;;14.73;100.00
48364;BME280;34170;54.364;18.582;2023-07-29T01:58:20;99485.72;;;14.74;100.00
48364;BME280;34170;54.364;18.582;2023-07-29T02:00:48;99474.81;;;14.67;100.00
48364;BME280;34170;54.364;18.582;2023-07-29T02:03:16;99486.91;;;14.72;100.00
48364;BME280;34170;54.364;18.582;2023-07-29T02:05:43;99493.00;;;14.74;100.00
48364;BME280;34170;54.364;18.582;2023-07-29T02:08:11;99488.16;;;14.54;100.00
48364;BME280;34170;54.364;18.582;2023-07-29T02:10:39;99489.28;;;14.45;100.00
48364;BME280;34170;54.364;18.582;2023-07-29T02:13:06;99485.97;;;14.58;100.00
48364;BME280;34170;54.364;18.582;2023-07-29T02:15:34;99477.19;;;14.41;100.00
48364;BME280;34170;54.364;18.582;2023-07-29T02:18:01;99485.22;;;14.34;100.00
48364;BME280;34170;54.364;18.582;2023-07-29T02:20:30;99490.25;;;14.37;100.00
48364;BME280;34170;54.364;18.582;2023-07-29T02:22:58;99499.19;;;14.38;100.00
48364;BME280;34170;54.364;18.582;2023-07-29T02:25:25;99489.81;;;14.19;100.00
48364;BME280;34170;54.364;18.582;2023-07-29T02:27:53;99492.63;;;14.25;100.00
48364;BME280;34170;54.364;18.582;2023-07-29T02:30:21;99494.81;;;14.37;100.00
48364;BME280;34170;54.364;18.582;2023-07-29T02:32:48;99502.06;;;14.51;100.00
48364;BME280;34170;54.364;18.582;2023-07-29T02:35:17;99494.81;;;14.37;100.00
48364;BME280;34170;54.364;18.582;2023-07-29T02:37:44;99504.06;;;14.27;100.00
48364;BME280;34170;54.364;18.582;2023-07-29T02:40:12;99504.34;;;14.33;100.00
48364;BME280;34170;54.364;18.582;2023-07-29T02:42:40;99501.09;;;14.22;100.00
48364;BME280;34170;54.364;18.582;2023-07-29T02:45:08;99500.31;;;14.28;100.00
48364;BME280;34170;54.364;18.582;2023-07-29T02:47:37;99503.84;;;14.44;100.00
48364;BME280;34170;54.364;18.582;2023-07-29T02:50:05;99509.59;;;14.56;100.00
48364;BME280;34170;54.364;18.582;2023-07-29T02:52:33;99506.63;;;14.65;100.00
48364;BME280;34170;54.364;18.582;2023-07-29T02:55:00;99502.63;;;14.46;100.00
48364;BME280;34170;54.364;18.582;2023-07-29T02:57:28;99498.56;;;14.21;100.00
48364;BME280;34170;54.364;18.582;2023-07-29T02:59:55;99500.06;;;14.38;100.00
48364;BME280;34170;54.364;18.582;2023-07-29T03:02:23;99511.59;;;14.47;100.00
48364;BME280;34170;54.364;18.582;2023-07-29T03:04:50;99507.56;;;14.43;100.00
48364;BME280;34170;54.364;18.582;2023-07-29T03:07:18;99506.44;;;14.52;100.00
48364;BME280;34170;54.364;18.582;2023-07-29T03:09:46;99514.66;;;14.59;100.00
48364;BME280;34170;54.364;18.582;2023-07-29T03:12:14;99519.19;;;14.73;100.00
48364;BME280;34170;54.364;18.582;2023-07-29T03:14:41;99521.34;;;14.78;100.00
48364;BME280;34170;54.364;18.582;2023-07-29T03:17:09;99520.66;;;14.91;100.00
48364;BME280;34170;54.364;18.582;2023-07-29T03:19:36;99508.91;;;14.83;100.00
48364;BME280;34170;54.364;18.582;2023-07-29T03:22:04;99525.06;;;14.92;100.00
48364;BME280;34170;54.364;18.582;2023-07-29T03:24:31;99532.66;;;15.03;100.00
48364;BME280;34170;54.364;18.582;2023-07-29T03:26:59;99523.38;;;15.12;100.00
48364;BME280;34170;54.364;18.582;2023-07-29T03:29:27;99520.13;;;15.23;100.00
48364;BME280;34170;54.364;18.582;2023-07-29T03:31:55;99530.72;;;15.40;100.00
48364;BME280;34170;54.364;18.582;2023-07-29T03:34:22;99521.53;;;15.41;100.00
48364;BME280;34170;54.364;18.582;2023-07-29T03:36:51;99530.81;;;15.53;100.00
48364;BME280;34170;54.364;18.582;2023-07-29T03:39:18;99538.16;;;15.59;100.00
48364;BME280;34170;54.364;18.582;2023-07-29T03:41:46;99525.84;;;15.57;100.00
48364;BME280;34170;54.364;18.582;2023-07-29T03:44:13;99540.03;;;15.59;100.00
48364;BME280;34170;54.364;18.582;2023-07-29T03:46:41;99534.28;;;15.69;100.00
48364;BME280;34170;54.364;18.582;2023-07-29T03:49:10;99538.78;;;16.18;100.00
48364;BME280;34170;54.364;18.582;2023-07-29T03:51:37;99550.72;;;16.65;100.00
48364;BME280;34170;54.364;18.582;2023-07-29T03:54:05;99552.09;;;16.96;100.00
48364;BME280;34170;54.364;18.582;2023-07-29T03:56:32;99557.19;;;17.19;100.00
48364;BME280;34170;54.364;18.582;2023-07-29T03:59:04;99554.28;;;17.41;100.00
48364;BME280;34170;54.364;18.582;2023-07-29T04:01:33;99546.75;;;17.43;100.00
48364;BME280;34170;54.364;18.582;2023-07-29T04:04:00;99556.78;;;17.49;100.00
48364;BME280;34170;54.364;18.582;2023-07-29T04:06:28;99561.41;;;18.08;100.00
48364;BME280;34170;54.364;18.582;2023-07-29T04:08:56;99566.09;;;18.53;100.00
48364;BME280;34170;54.364;18.582;2023-07-29T04:11:24;99559.25;;;19.53;95.88
48364;BME280;34170;54.364;18.582;2023-07-29T04:13:51;99568.91;;;19.55;95.79
48364;BME280;34170;54.364;18.582;2023-07-29T04:16:19;99572.88;;;19.53;95.28
48364;BME280;34170;54.364;18.582;2023-07-29T04:18:46;99578.09;;;19.29;97.10
48364;BME280;34170;54.364;18.582;2023-07-29T04:21:14;99579.41;;;19.52;95.62
48364;BME280;34170;54.364;18.582;2023-07-29T04:23:41;99584.97;;;19.63;96.53
48364;BME280;34170;54.364;18.582;2023-07-29T04:26:09;99580.91;;;19.79;94.51
48364;BME280;34170;54.364;18.582;2023-07-29T04:28:36;99581.59;;;19.75;92.52
48364;BME280;34170;54.364;18.582;2023-07-29T04:31:04;99575.13;;;19.37;95.40
48364;BME280;34170;54.364;18.582;2023-07-29T04:33:32;99579.91;;;19.74;94.31
48364;BME280;34170;54.364;18.582;2023-07-29T04:36:03;99587.44;;;19.72;92.85
48364;BME280;34170;54.364;18.582;2023-07-29T04:38:32;99572.31;;;19.44;93.44
48364;BME280;34170;54.364;18.582;2023-07-29T04:41:01;99579.53;;;19.63;95.79
48364;BME280;34170;54.364;18.582;2023-07-29T04:43:32;99575.75;;;20.89;85.66
48364;BME280;34170;54.364;18.582;2023-07-29T04:46:00;99577.28;;;20.85;84.17
48364;BME280;34170;54.364;18.582;2023-07-29T04:48:27;99578.00;;;20.62;84.90
48364;BME280;34170;54.364;18.582;2023-07-29T04:50:55;99583.47;;;19.99;89.97
48364;BME280;34170;54.364;18.582;2023-07-29T04:53:22;99574.66;;;19.97;89.96
48364;BME280;34170;54.364;18.582;2023-07-29T04:55:50;99570.50;;;19.95;92.88
48364;BME280;34170;54.364;18.582;2023-07-29T04:58:18;99565.50;;;19.60;92.69
48364;BME280;34170;54.364;18.582;2023-07-29T05:00:48;99568.16;;;19.10;96.83
48364;BME280;34170;54.364;18.582;2023-07-29T05:03:15;99573.28;;;19.56;96.16
48364;BME280;34170;54.364;18.582;2023-07-29T05:05:43;99578.03;;;20.18;89.74
48364;BME280;34170;54.364;18.582;2023-07-29T05:08:11;99586.28;;;20.11;90.77
48364;BME280;34170;54.364;18.582;2023-07-29T05:10:39;99577.88;;;20.13;93.00
48364;BME280;34170;54.364;18.582;2023-07-29T05:13:07;99588.50;;;19.96;94.58
48364;BME280;34170;54.364;18.582;2023-07-29T05:15:34;99583.31;;;20.13;93.91
48364;BME280;34170;54.364;18.582;2023-07-29T05:18:02;99582.72;;;20.73;89.37
48364;BME280;34170;54.364;18.582;2023-07-29T05:20:29;99591.84;;;20.60;89.21
48364;BME280;34170;54.364;18.582;2023-07-29T05:22:56;99580.31;;;20.58;91.12
48364;BME280;34170;54.364;18.582;2023-07-29T05:25:24;99587.59;;;21.74;86.12
48364;BME280;34170;54.364;18.582;2023-07-29T05:27:51;99587.06;;;23.69;75.55
48364;BME280;34170;54.364;18.582;2023-07-29T05:30:19;99597.00;;;26.23;58.21
48364;BME280;34170;54.364;18.582;2023-07-29T05:32:46;99603.47;;;28.98;45.70
48364;BME280;34170;54.364;18.582;2023-07-29T05:35:14;99598.75;;;29.88;43.05
48364;BME280;34170;54.364;18.582;2023-07-29T05:37:41;99598.75;;;29.88;43.05
48364;BME280;34170;54.364;18.582;2023-07-29T05:40:09;99595.41;;;30.97;40.18
48364;BME280;34170;54.364;18.582;2023-07-29T05:42:38;99590.16;;;30.72;40.72
48364;BME280;34170;54.364;18.582;2023-07-29T05:45:07;99595.59;;;31.63;38.73
48364;BME280;34170;54.364;18.582;2023-07-29T05:47:34;99605.63;;;31.40;37.14
48364;BME280;34170;54.364;18.582;2023-07-29T05:50:03;99603.53;;;32.22;36.06
48364;BME280;34170;54.364;18.582;2023-07-29T05:52:31;99615.75;;;32.95;33.26
48364;BME280;34170;54.364;18.582;2023-07-29T05:54:59;99619.00;;;33.61;32.71
48364;BME280;34170;54.364;18.582;2023-07-29T05:57:27;99621.03;;;33.47;33.13
48364;BME280;34170;54.364;18.582;2023-07-29T05:59:55;99627.75;;;34.36;31.28
48364;BME280;34170;54.364;18.582;2023-07-29T06:02:22;99630.75;;;35.29;29.84
48364;BME280;34170;54.364;18.582;2023-07-29T06:04:52;99635.81;;;36.14;28.90
48364;BME280;34170;54.364;18.582;2023-07-29T06:07:19;99639.78;;;37.80;27.10
48364;BME280;34170;54.364;18.582;2023-07-29T06:09:47;99636.03;;;39.41;24.49
48364;BME280;34170;54.364;18.582;2023-07-29T06:12:14;99636.53;;;39.31;25.09
48364;BME280;34170;54.364;18.582;2023-07-29T06:14:42;99638.41;;;38.65;24.82
48364;BME280;34170;54.364;18.582;2023-07-29T06:17:09;99643.94;;;39.63;23.52
48364;BME280;34170;54.364;18.582;2023-07-29T06:19:39;99631.94;;;40.51;22.45
48364;BME280;34170;54.364;18.582;2023-07-29T06:22:06;99647.09;;;41.10;22.35
48364;BME280;34170;54.364;18.582;2023-07-29T06:24:34;99640.16;;;40.12;22.57
48364;BME280;34170;54.364;18.582;2023-07-29T06:27:01;99631.31;;;39.98;22.44
48364;BME280;34170;54.364;18.582;2023-07-29T06:29:29;99643.84;;;40.61;21.66
48364;BME280;34170;54.364;18.582;2023-07-29T06:31:58;99643.09;;;40.48;22.12
48364;BME280;34170;54.364;18.582;2023-07-29T06:34:25;99645.31;;;39.82;22.94
48364;BME280;34170;54.364;18.582;2023-07-29T06:36:53;99644.16;;;41.97;20.72
48364;BME280;34170;54.364;18.582;2023-07-29T06:39:20;99631.31;;;40.90;21.15
48364;BME280;34170;54.364;18.582;2023-07-29T06:41:47;99630.00;;;38.89;23.22
48364;BME280;34170;54.364;18.582;2023-07-29T06:44:17;99635.50;;;39.63;22.58
48364;BME280;34170;54.364;18.582;2023-07-29T06:46:45;99641.16;;;40.20;22.10
48364;BME280;34170;54.364;18.582;2023-07-29T06:49:13;99624.34;;;39.26;22.96
48364;BME280;34170;54.364;18.582;2023-07-29T06:51:40;99644.78;;;39.64;21.56
48364;BME280;34170;54.364;18.582;2023-07-29T06:54:08;99625.75;;;40.93;20.07
48364;BME280;34170;54.364;18.582;2023-07-29T06:56:35;99630.44;;;42.61;18.71
48364;BME280;34170;54.364;18.582;2023-07-29T06:59:03;99629.50;;;42.77;19.32
48364;BME280;34170;54.364;18.582;2023-07-29T07:01:31;99629.50;;;42.77;19.32
48364;BME280;34170;54.364;18.582;2023-07-29T07:03:58;99633.78;;;43.47;17.85
48364;BME280;34170;54.364;18.582;2023-07-29T07:06:26;99624.66;;;42.77;17.62
48364;BME280;34170;54.364;18.582;2023-07-29T07:08:53;99630.09;;;43.73;17.14
48364;BME280;34170;54.364;18.582;2023-07-29T07:11:21;99619.50;;;42.37;18.18
48364;BME280;34170;54.364;18.582;2023-07-29T07:13:48;99630.25;;;43.54;16.74
48364;BME280;34170;54.364;18.582;2023-07-29T07:16:16;99614.59;;;41.16;18.07
48364;BME280;34170;54.364;18.582;2023-07-29T07:18:43;99634.53;;;44.08;16.41
48364;BME280;34170;54.364;18.582;2023-07-29T07:21:11;99628.41;;;43.38;16.17
48364;BME280;34170;54.364;18.582;2023-07-29T07:23:39;99620.22;;;43.03;16.74
48364;BME280;34170;54.364;18.582;2023-07-29T07:26:06;99624.22;;;44.27;15.56
48364;BME280;34170;54.364;18.582;2023-07-29T07:28:34;99632.84;;;43.36;16.03
48364;BME280;34170;54.364;18.582;2023-07-29T07:31:01;99627.63;;;43.72;15.98
48364;BME280;34170;54.364;18.582;2023-07-29T07:33:29;99624.78;;;42.38;16.85
48364;BME280;34170;54.364;18.582;2023-07-29T07:35:56;99615.25;;;41.45;17.90
48364;BME280;34170;54.364;18.582;2023-07-29T07:38:24;99605.34;;;41.16;17.89
48364;BME280;34170;54.364;18.582;2023-07-29T07:40:55;99611.41;;;41.34;17.96
48364;BME280;34170;54.364;18.582;2023-07-29T07:43:23;99607.41;;;39.92;19.63
48364;BME280;34170;54.364;18.582;2023-07-29T07:45:56;99613.72;;;41.67;17.97
48364;BME280;34170;54.364;18.582;2023-07-29T07:48:25;99606.25;;;41.04;18.26
48364;BME280;34170;54.364;18.582;2023-07-29T07:50:52;99605.75;;;40.51;19.09
48364;BME280;34170;54.364;18.582;2023-07-29T07:53:20;99600.88;;;41.15;18.07
48364;BME280;34170;54.364;18.582;2023-07-29T07:55:47;99603.34;;;39.49;19.94
48364;BME280;34170;54.364;18.582;2023-07-29T07:58:15;99599.47;;;39.53;19.67
48364;BME280;34170;54.364;18.582;2023-07-29T08:00:43;99599.25;;;39.74;19.69
48364;BME280;34170;54.364;18.582;2023-07-29T08:03:10;99595.97;;;40.61;18.75
48364;BME280;34170;54.364;18.582;2023-07-29T08:05:38;99594.38;;;40.95;19.02
48364;BME280;34170;54.364;18.582;2023-07-29T08:08:05;99589.19;;;40.97;18.73
48364;BME280;34170;54.364;18.582;2023-07-29T08:10:33;99606.66;;;42.62;16.88
48364;BME280;34170;54.364;18.582;2023-07-29T08:13:01;99600.97;;;42.89;16.65
48364;BME280;34170;54.364;18.582;2023-07-29T08:15:28;99595.28;;;41.54;17.95
48364;BME280;34170;54.364;18.582;2023-07-29T08:17:56;99581.09;;;41.89;17.55
48364;BME280;34170;54.364;18.582;2023-07-29T08:20:23;99593.41;;;42.01;16.21
48364;BME280;34170;54.364;18.582;2023-07-29T08:22:51;99580.38;;;42.39;16.40
48364;BME280;34170;54.364;18.582;2023-07-29T08:25:18;99582.28;;;41.30;17.89
48364;BME280;34170;54.364;18.582;2023-07-29T08:27:46;99574.03;;;40.86;17.03
48364;BME280;34170;54.364;18.582;2023-07-29T08:30:13;99581.56;;;41.17;16.78
48364;BME280;34170;54.364;18.582;2023-07-29T08:32:43;99577.63;;;41.02;18.06
48364;BME280;34170;54.364;18.582;2023-07-29T08:35:11;99577.56;;;40.99;18.12
48364;BME280;34170;54.364;18.582;2023-07-29T08:37:39;99569.75;;;41.27;17.56
48364;BME280;34170;54.364;18.582;2023-07-29T08:40:07;99575.47;;;41.50;17.31
48364;BME280;34170;54.364;18.582;2023-07-29T08:42:37;99574.63;;;38.53;18.71
48364;BME280;34170;54.364;18.582;2023-07-29T08:45:09;99561.81;;;38.19;19.51
48364;BME280;34170;54.364;18.582;2023-07-29T08:47:38;99551.75;;;37.72;19.33
48364;BME280;34170;54.364;18.582;2023-07-29T08:50:06;99550.72;;;38.34;18.87
48364;BME280;34170;54.364;18.582;2023-07-29T08:52:35;99564.19;;;38.41;18.61
48364;BME280;34170;54.364;18.582;2023-07-29T08:55:03;99568.72;;;37.54;19.27
48364;BME280;34170;54.364;18.582;2023-07-29T08:57:32;99568.06;;;39.51;18.14
48364;BME280;34170;54.364;18.582;2023-07-29T09:00:00;99567.13;;;40.19;17.70
48364;BME280;34170;54.364;18.582;2023-07-29T09:02:29;99570.03;;;38.98;17.36
48364;BME280;34170;54.364;18.582;2023-07-29T09:04:56;99574.56;;;40.28;17.01
48364;BME280;34170;54.364;18.582;2023-07-29T09:07:24;99573.81;;;39.99;17.47
48364;BME280;34170;54.364;18.582;2023-07-29T09:09:52;99566.84;;;40.72;16.91
48364;BME280;34170;54.364;18.582;2023-07-29T09:12:20;99566.94;;;39.27;18.02
48364;BME280;34170;54.364;18.582;2023-07-29T09:14:51;99570.50;;;39.12;18.48
48364;BME280;34170;54.364;18.582;2023-07-29T09:17:20;99551.75;;;36.02;21.18
48364;BME280;34170;54.364;18.582;2023-07-29T09:19:50;99549.88;;;35.33;21.42
48364;BME280;34170;54.364;18.582;2023-07-29T09:22:19;99550.53;;;35.21;21.62
48364;BME280;34170;54.364;18.582;2023-07-29T09:24:47;99551.78;;;34.40;22.91
48364;BME280;34170;54.364;18.582;2023-07-29T09:27:25;99545.72;;;34.95;22.34
48364;BME280;34170;54.364;18.582;2023-07-29T09:29:55;99550.66;;;35.07;22.03
48364;BME280;34170;54.364;18.582;2023-07-29T09:32:24;99549.19;;;35.53;21.14
48364;BME280;34170;54.364;18.582;2023-07-29T09:34:52;99550.31;;;33.20;24.44
48364;BME280;34170;54.364;18.582;2023-07-29T09:37:23;99556.53;;;33.40;24.34
48364;BME280;34170;54.364;18.582;2023-07-29T09:39:51;99560.97;;;33.18;25.61
48364;BME280;34170;54.364;18.582;2023-07-29T09:42:20;99558.59;;;34.65;23.07
48364;BME280;34170;54.364;18.582;2023-07-29T09:44:51;99547.53;;;35.08;21.97
48364;BME280;34170;54.364;18.582;2023-07-29T09:47:19;99554.22;;;33.78;22.94
48364;BME280;34170;54.364;18.582;2023-07-29T09:49:47;99542.28;;;33.19;22.63
48364;BME280;34170;54.364;18.582;2023-07-29T09:52:19;99551.41;;;33.70;22.17
48364;BME280;34170;54.364;18.582;2023-07-29T09:54:47;99548.00;;;35.02;20.37
48364;BME280;34170;54.364;18.582;2023-07-29T09:57:17;99546.16;;;33.32;22.32
48364;BME280;34170;54.364;18.582;2023-07-29T09:59:55;99552.13;;;33.61;21.47
48364;BME280;34170;54.364;18.582;2023-07-29T10:02:23;99544.84;;;32.65;22.93
48364;BME280;34170;54.364;18.582;2023-07-29T10:04:52;99541.38;;;33.69;22.39
48364;BME280;34170;54.364;18.582;2023-07-29T10:07:20;99530.81;;;31.49;24.51
48364;BME280;34170;54.364;18.582;2023-07-29T10:09:48;99533.19;;;32.63;23.55
48364;BME280;34170;54.364;18.582;2023-07-29T10:12:19;99538.34;;;34.42;22.25
48364;BME280;34170;54.364;18.582;2023-07-29T10:14:47;99536.53;;;35.12;20.88
48364;BME280;34170;54.364;18.582;2023-07-29T10:17:15;99521.88;;;31.99;23.13
48364;BME280;34170;54.364;18.582;2023-07-29T10:19:43;99515.97;;;32.33;23.78
48364;BME280;34170;54.364;18.582;2023-07-29T10:22:13;99524.97;;;31.97;23.37
48364;BME280;34170;54.364;18.582;2023-07-29T10:24:45;99514.50;;;32.49;23.40
48364;BME280;34170;54.364;18.582;2023-07-29T10:27:15;99503.69;;;33.49;22.42
48364;BME280;34170;54.364;18.582;2023-07-29T10:29:45;99510.44;;;34.42;21.98
48364;BME280;34170;54.364;18.582;2023-07-29T10:32:12;99520.59;;;35.39;20.72
48364;BME280;34170;54.364;18.582;2023-07-29T10:34:40;99513.56;;;34.17;20.45
48364;BME280;34170;54.364;18.582;2023-07-29T10:37:08;99510.88;;;33.95;21.51
48364;BME280;34170;54.364;18.582;2023-07-29T10:39:40;99517.00;;;34.46;22.79
48364;BME280;34170;54.364;18.582;2023-07-29T10:42:08;99516.22;;;29.05;27.18
48364;BME280;34170;54.364;18.582;2023-07-29T10:49:40;99491.72;;;30.45;25.46
48364;BME280;34170;54.364;18.582;2023-07-29T10:52:08;99510.53;;;30.91;25.39
48364;BME280;34170;54.364;18.582;2023-07-29T10:54:42;99503.03;;;30.92;25.10
48364;BME280;34170;54.364;18.582;2023-07-29T10:57:15;99498.22;;;31.35;24.08
48364;BME280;34170;54.364;18.582;2023-07-29T11:00:03;99498.31;;;31.30;24.41
48364;BME280;34170;54.364;18.582;2023-07-29T11:02:35;99503.75;;;32.01;24.68
48364;BME280;34170;54.364;18.582;2023-07-29T11:05:07;99485.91;;;30.66;26.48
48364;BME280;34170;54.364;18.582;2023-07-29T11:07:55;99487.28;;;31.91;25.39
48364;BME280;34170;54.364;18.582;2023-07-29T11:10:22;99497.44;;;32.93;24.01
48364;BME280;34170;54.364;18.582;2023-07-29T11:12:52;99489.22;;;31.77;24.68
48364;BME280;34170;54.364;18.582;2023-07-29T11:15:26;99489.69;;;31.13;25.46
48364;BME280;34170;54.364;18.582;2023-07-29T11:17:58;99482.75;;;31.48;25.19
48364;BME280;34170;54.364;18.582;2023-07-29T11:20:29;99476.19;;;31.58;26.20
48364;BME280;34170;54.364;18.582;2023-07-29T11:22:58;99480.28;;;30.90;26.61
48364;BME280;34170;54.364;18.582;2023-07-29T11:25:28;99476.31;;;30.10;26.45
48364;BME280;34170;54.364;18.582;2023-07-29T11:27:58;99482.72;;;29.12;28.50
48364;BME280;34170;54.364;18.582;2023-07-29T11:30:29;99480.59;;;28.39;30.26
48364;BME280;34170;54.364;18.582;2023-07-29T11:32:58;99476.28;;;28.12;31.07
48364;BME280;34170;54.364;18.582;2023-07-29T11:35:26;99469.41;;;27.73;32.03
48364;BME280;34170;54.364;18.582;2023-07-29T11:37:54;99464.75;;;27.38;29.87
48364;BME280;34170;54.364;18.582;2023-07-29T11:40:24;99466.97;;;27.20;30.78
48364;BME280;34170;54.364;18.582;2023-07-29T11:42:54;99467.47;;;26.87;32.19
48364;BME280;34170;54.364;18.582;2023-07-29T11:45:22;99459.47;;;27.77;33.27
48364;BME280;34170;54.364;18.582;2023-07-29T11:48:02;99462.53;;;27.76;31.08
48364;BME280;34170;54.364;18.582;2023-07-29T11:50:29;99470.28;;;27.48;31.83
48364;BME280;34170;54.364;18.582;2023-07-29T11:52:57;99464.94;;;26.70;32.43
48364;BME280;34170;54.364;18.582;2023-07-29T11:55:25;99471.50;;;25.58;34.35
48364;BME280;34170;54.364;18.582;2023-07-29T11:57:52;99460.09;;;26.34;32.76
48364;BME280;34170;54.364;18.582;2023-07-29T12:00:20;99461.13;;;26.18;33.53
48364;BME280;34170;54.364;18.582;2023-07-29T12:02:49;99450.78;;;26.56;33.70
48364;BME280;34170;54.364;18.582;2023-07-29T12:05:17;99444.31;;;27.60;31.46
48364;BME280;34170;54.364;18.582;2023-07-29T12:07:46;99444.81;;;27.87;32.00
48364;BME280;34170;54.364;18.582;2023-07-29T12:10:13;99453.44;;;27.29;33.26
48364;BME280;34170;54.364;18.582;2023-07-29T12:12:46;99439.38;;;27.41;33.42
48364;BME280;34170;54.364;18.582;2023-07-29T12:15:13;99425.25;;;27.22;32.80
48364;BME280;34170;54.364;18.582;2023-07-29T12:17:41;99436.88;;;27.29;34.67
48364;BME280;34170;54.364;18.582;2023-07-29T12:20:10;99418.91;;;26.91;35.23
48364;BME280;34170;54.364;18.582;2023-07-29T12:22:38;99423.34;;;27.38;35.50
48364;BME280;34170;54.364;18.582;2023-07-29T12:25:06;99425.53;;;27.26;35.82
48364;BME280;34170;54.364;18.582;2023-07-29T12:27:34;99420.84;;;27.06;33.90
48364;BME280;34170;54.364;18.582;2023-07-29T12:30:01;99411.00;;;26.21;35.28
48364;BME280;34170;54.364;18.582;2023-07-29T12:32:32;99401.66;;;26.32;35.73
48364;BME280;34170;54.364;18.582;2023-07-29T12:34:59;99416.56;;;26.31;36.53
48364;BME280;34170;54.364;18.582;2023-07-29T12:37:31;99407.50;;;26.41;35.94
48364;BME280;34170;54.364;18.582;2023-07-29T12:39:59;99402.75;;;26.21;36.11
48364;BME280;34170;54.364;18.582;2023-07-29T12:42:27;99400.06;;;26.52;36.50
48364;BME280;34170;54.364;18.582;2023-07-29T12:44:54;99402.13;;;26.03;36.58
48364;BME280;34170;54.364;18.582;2023-07-29T12:47:22;99408.31;;;26.41;36.59
48364;BME280;34170;54.364;18.582;2023-07-29T12:49:49;99419.16;;;26.79;36.04
48364;BME280;34170;54.364;18.582;2023-07-29T12:52:17;99410.66;;;26.96;35.60
48364;BME280;34170;54.364;18.582;2023-07-29T12:54:44;99412.78;;;26.63;36.52
48364;BME280;34170;54.364;18.582;2023-07-29T12:57:11;99413.09;;;26.67;36.09
48364;BME280;34170;54.364;18.582;2023-07-29T12:59:39;99405.13;;;26.80;35.78
48364;BME280;34170;54.364;18.582;2023-07-29T13:02:06;99399.88;;;27.25;35.96
48364;BME280;34170;54.364;18.582;2023-07-29T13:04:34;99399.88;;;27.20;35.87